Time;durP1;ratioP1;P1;durP2;ratioP2;P2;SDS_P1;SDS_P2;PMS_P1;PMS_P2;Temp;Humidity;BMP_temperature;BMP_pressure;BME280_temperature;BME280_humidity;BME280_pressure;Samples;Min_cycle;Max_cycle;Signal;HPM_P1;HPM_P2
2022/11/03 00:00:48;;;;;;;11.20;4.05;;;;;;;;;;5001198;28;20064;-74
2022/11/03 00:03:33;;;;;;;14.48;4.95;;;;;;;;;;5007687;28;20124;-70
2022/11/03 00:06:18;;;;;;;11.35;4.47;;;;;;;;;;4997280;28;20124;-73
2022/11/03 00:09:05;;;;;;;8.43;4.03;;;;;;;;;;4986521;28;20554;-74
2022/11/03 00:11:50;;;;;;;12.80;4.25;;;;;;;;;;4995540;28;20033;-71
2022/11/03 00:14:36;;;;;;;8.80;4.45;;;;;;;;;;5007613;28;20033;-70
2022/11/03 00:17:21;;;;;;;13.57;5.10;;;;;;;;;;5007505;28;20034;-72
2022/11/03 00:20:07;;;;;;;12.00;5.05;;;;;;;;;;5008242;28;20117;-76
2022/11/03 00:22:52;;;;;;;9.13;3.97;;;;;;;;;;5009379;28;20044;-76
2022/11/03 00:25:38;;;;;;;9.68;4.60;;;;;;;;;;5008914;28;20125;-76
2022/11/03 00:28:23;;;;;;;13.75;4.60;;;;;;;;;;4990853;28;20045;-80
2022/11/03 00:31:13;;;;;;;14.13;4.80;;;;;;;;;;5003020;28;20026;-75
2022/11/03 00:33:59;;;;;;;8.80;4.47;;;;;;;;;;5005167;28;20053;-73
2022/11/03 00:36:44;;;;;;;9.70;4.55;;;;;;;;;;5009256;28;20053;-72
2022/11/03 00:39:29;;;;;;;8.30;4.03;;;;;;;;;;5004354;28;20034;-69
2022/11/03 00:42:14;;;;;;;11.35;4.50;;;;;;;;;;4995532;28;20057;-68
2022/11/03 00:44:59;;;;;;;12.20;4.35;;;;;;;;;;5009059;28;20442;-68
2022/11/03 00:50:48;;;;;;;10.57;4.05;;;;;;;;;;5000532;28;20038;-69
2022/11/03 00:53:54;;;;;;;10.32;4.70;;;;;;;;;;5008414;28;20033;-68
2022/11/03 00:56:40;;;;;;;9.48;4.15;;;;;;;;;;5004671;28;20065;-76
2022/11/03 00:59:25;;;;;;;10.15;4.50;;;;;;;;;;5001076;28;20527;-77
2022/11/03 01:02:10;;;;;;;10.07;4.28;;;;;;;;;;5008815;28;20054;-75
2022/11/03 01:08:00;;;;;;;10.90;4.22;;;;;;;;;;5004558;28;20061;-76
2022/11/03 01:13:49;;;;;;;8.27;4.00;;;;;;;;;;5000894;28;20044;-69
2022/11/03 01:16:34;;;;;;;11.95;4.28;;;;;;;;;;5008514;28;20022;-75
2022/11/03 01:19:19;;;;;;;11.55;4.93;;;;;;;;;;5004103;28;20038;-74
2022/11/03 01:22:05;;;;;;;12.13;4.70;;;;;;;;;;5008717;28;20030;-76
2022/11/03 01:24:53;;;;;;;12.90;4.47;;;;;;;;;;5009298;28;20048;-74
2022/11/03 01:27:38;;;;;;;10.60;4.53;;;;;;;;;;5008221;28;20051;-75
2022/11/03 01:30:23;;;;;;;11.98;4.35;;;;;;;;;;4998197;28;20033;-74
2022/11/03 01:33:08;;;;;;;12.15;4.68;;;;;;;;;;5008094;28;20026;-74
2022/11/03 01:35:54;;;;;;;15.18;4.85;;;;;;;;;;5005731;28;20045;-74
2022/11/03 01:38:39;;;;;;;13.68;4.45;;;;;;;;;;5006885;28;20041;-73
2022/11/03 01:41:26;;;;;;;13.10;4.95;;;;;;;;;;4998558;28;20125;-74
2022/11/03 01:44:11;;;;;;;11.02;4.05;;;;;;;;;;5005571;28;20033;-74
2022/11/03 01:47:12;;;;;;;12.60;4.70;;;;;;;;;;5007926;28;20026;-74
2022/11/03 01:49:59;;;;;;;9.85;4.07;;;;;;;;;;5006355;28;20025;-73
2022/11/03 01:52:49;;;;;;;12.88;4.43;;;;;;;;;;5008936;28;20026;-75
2022/11/03 01:55:36;;;;;;;10.32;4.10;;;;;;;;;;5003164;28;20041;-74
2022/11/03 01:58:27;;;;;;;7.85;4.10;;;;;;;;;;4997208;28;20030;-72
2022/11/03 02:01:12;;;;;;;8.88;4.18;;;;;;;;;;5002792;28;20389;-74
2022/11/03 02:04:00;;;;;;;8.23;4.07;;;;;;;;;;5007473;28;20033;-74
2022/11/03 02:06:48;;;;;;;9.27;3.45;;;;;;;;;;5008609;28;20030;-74
2022/11/03 02:09:34;;;;;;;8.80;3.55;;;;;;;;;;5018512;28;20021;-77
2022/11/03 02:12:20;;;;;;;11.60;3.95;;;;;;;;;;5002804;28;20057;-74
2022/11/03 02:15:07;;;;;;;8.02;3.42;;;;;;;;;;5010855;28;20385;-74
2022/11/03 02:17:53;;;;;;;7.05;3.35;;;;;;;;;;4996750;28;20038;-74
2022/11/03 02:20:38;;;;;;;9.05;4.43;;;;;;;;;;5011103;28;20069;-74
2022/11/03 02:23:35;;;;;;;6.78;3.90;;;;;;;;;;5009850;28;20045;-78
2022/11/03 02:26:21;;;;;;;9.80;4.25;;;;;;;;;;5021509;28;20389;-66
2022/11/03 02:29:06;;;;;;;11.57;4.63;;;;;;;;;;5002766;28;20033;-71
2022/11/03 02:32:04;;;;;;;10.32;3.70;;;;;;;;;;5010190;28;20049;-70
2022/11/03 02:34:59;;;;;;;11.98;4.43;;;;;;;;;;4996876;28;20527;-71
2022/11/03 02:37:46;;;;;;;7.20;3.17;;;;;;;;;;5010694;28;20057;-72
2022/11/03 02:40:33;;;;;;;7.97;4.10;;;;;;;;;;5029221;28;20056;-72
2022/11/03 02:43:19;;;;;;;9.77;3.75;;;;;;;;;;4992544;28;20471;-73
2022/11/03 02:46:05;;;;;;;9.82;3.65;;;;;;;;;;5015381;28;20033;-70
2022/11/03 02:48:51;;;;;;;16.00;4.22;;;;;;;;;;5009493;28;20121;-73
2022/11/03 02:51:36;;;;;;;9.88;3.85;;;;;;;;;;5010607;28;20033;-71
2022/11/03 02:54:24;;;;;;;9.25;4.45;;;;;;;;;;5022656;28;20116;-70
2022/11/03 02:57:13;;;;;;;10.52;4.00;;;;;;;;;;5016343;28;20025;-73
2022/11/03 03:00:01;;;;;;;9.82;3.58;;;;;;;;;;5021029;28;20041;-71
2022/11/03 03:02:50;;;;;;;7.22;3.22;;;;;;;;;;5019424;28;20068;-71
2022/11/03 03:05:38;;;;;;;13.47;4.10;;;;;;;;;;5027961;28;20033;-73
2022/11/03 03:08:24;;;;;;;13.35;3.80;;;;;;;;;;5002185;28;20334;-71
2022/11/03 03:11:13;;;;;;;8.23;3.65;;;;;;;;;;5010834;28;20029;-72
2022/11/03 03:13:58;;;;;;;7.90;3.58;;;;;;;;;;5015827;28;20301;-72
2022/11/03 03:16:50;;;;;;;8.95;3.80;;;;;;;;;;5015232;28;20103;-71
2022/11/03 03:19:45;;;;;;;11.52;4.70;;;;;;;;;;5014613;28;20120;-73
2022/11/03 03:22:34;;;;;;;8.70;3.72;;;;;;;;;;5025480;28;20026;-72
2022/11/03 03:25:33;;;;;;;11.63;4.10;;;;;;;;;;5014968;28;20036;-74
2022/11/03 03:28:21;;;;;;;12.45;3.90;;;;;;;;;;5029133;28;20029;-74
2022/11/03 03:31:08;;;;;;;10.88;4.80;;;;;;;;;;5029526;28;20029;-73
2022/11/03 03:33:55;;;;;;;8.48;3.50;;;;;;;;;;5010145;28;20634;-73
2022/11/03 03:36:42;;;;;;;7.80;3.83;;;;;;;;;;5013024;28;20152;-73
2022/11/03 03:39:28;;;;;;;10.43;4.32;;;;;;;;;;5027679;28;20029;-73
2022/11/03 03:42:14;;;;;;;8.60;4.30;;;;;;;;;;5011455;28;20119;-69
2022/11/03 03:45:00;;;;;;;7.60;3.42;;;;;;;;;;5027725;28;20056;-70
2022/11/03 03:47:45;;;;;;;8.48;3.45;;;;;;;;;;5010392;28;20033;-69
2022/11/03 03:50:33;;;;;;;7.70;3.78;;;;;;;;;;5009740;28;20065;-69
2022/11/03 03:53:18;;;;;;;7.35;3.58;;;;;;;;;;5010551;28;20491;-69
2022/11/03 03:56:06;;;;;;;10.15;3.42;;;;;;;;;;5029411;28;20034;-69
2022/11/03 03:58:52;;;;;;;9.43;3.15;;;;;;;;;;5026610;28;20128;-71
2022/11/03 04:01:37;;;;;;;7.63;2.90;;;;;;;;;;5012568;28;20017;-74
2022/11/03 04:04:22;;;;;;;8.50;3.22;;;;;;;;;;5024843;28;20087;-73
2022/11/03 04:10:11;;;;;;;6.78;3.55;;;;;;;;;;5025685;28;20053;-72
2022/11/03 04:22:15;;;;;;;8.88;3.40;;;;;;;;;;5013722;28;20022;-75
2022/11/03 04:25:00;;;;;;;5.95;3.05;;;;;;;;;;5002651;28;20033;-76
2022/11/03 04:27:45;;;;;;;10.65;3.45;;;;;;;;;;4999774;28;20033;-75
2022/11/03 04:30:31;;;;;;;11.57;3.42;;;;;;;;;;5005838;28;20084;-82
2022/11/03 04:33:17;;;;;;;10.05;3.72;;;;;;;;;;4992581;28;20014;-74
2022/11/03 04:36:08;;;;;;;12.20;5.13;;;;;;;;;;5014533;28;20439;-75
2022/11/03 04:38:53;;;;;;;6.07;3.20;;;;;;;;;;5029164;28;20037;-74
2022/11/03 04:41:38;;;;;;;6.97;2.80;;;;;;;;;;5011304;28;20042;-76
2022/11/03 04:44:24;;;;;;;9.80;3.75;;;;;;;;;;5001351;28;20448;-73
2022/11/03 04:47:11;;;;;;;7.57;3.28;;;;;;;;;;4990675;28;20030;-74
2022/11/03 04:49:56;;;;;;;8.65;3.00;;;;;;;;;;5013539;28;20050;-73
2022/11/03 04:52:42;;;;;;;8.38;3.38;;;;;;;;;;5027666;28;20059;-70
2022/11/03 04:55:27;;;;;;;6.63;3.17;;;;;;;;;;5010442;28;20079;-71
2022/11/03 04:58:15;;;;;;;10.52;4.07;;;;;;;;;;4995284;28;20457;-73
2022/11/03 05:01:02;;;;;;;10.85;3.67;;;;;;;;;;5012146;28;20063;-75
2022/11/03 05:03:52;;;;;;;7.85;3.20;;;;;;;;;;5000787;28;20039;-73
2022/11/03 05:06:38;;;;;;;6.00;2.80;;;;;;;;;;5011639;28;20038;-73
2022/11/03 05:09:26;;;;;;;10.18;3.67;;;;;;;;;;5014839;28;20041;-73
2022/11/03 05:12:11;;;;;;;6.22;3.00;;;;;;;;;;5014633;28;20033;-74
2022/11/03 05:14:57;;;;;;;7.45;4.32;;;;;;;;;;5013873;28;20033;-68
2022/11/03 05:17:42;;;;;;;8.52;4.05;;;;;;;;;;5007686;28;20160;-68
2022/11/03 05:20:35;;;;;;;9.07;4.15;;;;;;;;;;5010998;28;20044;-68
2022/11/03 05:23:21;;;;;;;8.85;3.83;;;;;;;;;;5014593;28;20033;-69
2022/11/03 05:26:12;;;;;;;11.02;4.75;;;;;;;;;;5010059;28;20033;-68
2022/11/03 05:29:10;;;;;;;8.35;4.15;;;;;;;;;;5010745;28;20034;-68
2022/11/03 05:31:55;;;;;;;8.43;4.18;;;;;;;;;;5026319;28;20057;-69
2022/11/03 05:34:50;;;;;;;9.75;3.72;;;;;;;;;;5005226;28;20044;-70
2022/11/03 05:37:36;;;;;;;12.38;4.30;;;;;;;;;;5024792;28;20017;-70
2022/11/03 05:40:22;;;;;;;6.20;3.78;;;;;;;;;;5021588;28;20049;-70
2022/11/03 05:43:09;;;;;;;8.32;3.75;;;;;;;;;;5026288;28;20021;-70
2022/11/03 05:45:56;;;;;;;8.43;3.67;;;;;;;;;;4991325;28;20038;-70
2022/11/03 05:48:45;;;;;;;8.52;3.70;;;;;;;;;;5021868;28;20022;-75
2022/11/03 05:51:36;;;;;;;11.20;3.97;;;;;;;;;;5011722;28;20052;-80
2022/11/03 05:54:23;;;;;;;7.07;4.00;;;;;;;;;;5002028;28;20507;-71
2022/11/03 05:57:15;;;;;;;15.07;4.32;;;;;;;;;;5019584;28;20058;-73
2022/11/03 06:00:00;;;;;;;16.60;5.82;;;;;;;;;;5026578;28;20056;-72
2022/11/03 06:02:48;;;;;;;10.95;4.22;;;;;;;;;;5017947;28;20033;-72
2022/11/03 06:05:33;;;;;;;12.23;4.03;;;;;;;;;;5011089;28;20045;-78
2022/11/03 06:08:20;;;;;;;8.07;3.55;;;;;;;;;;5013132;28;20057;-69
2022/11/03 06:11:08;;;;;;;9.48;4.15;;;;;;;;;;5016904;28;20021;-61
2022/11/03 06:13:55;;;;;;;10.30;3.67;;;;;;;;;;5001189;28;20388;-62
2022/11/03 06:16:42;;;;;;;11.15;4.05;;;;;;;;;;5008641;28;20030;-65
2022/11/03 06:19:27;;;;;;;12.10;4.15;;;;;;;;;;5010406;28;20042;-63
2022/11/03 06:22:24;;;;;;;12.45;4.47;;;;;;;;;;5014052;28;20049;-64
2022/11/03 06:25:13;;;;;;;9.40;4.28;;;;;;;;;;5011458;28;20029;-71
2022/11/03 06:28:01;;;;;;;10.67;4.00;;;;;;;;;;4996923;28;20035;-70
2022/11/03 06:30:46;;;;;;;9.73;4.25;;;;;;;;;;5025821;28;20428;-71
2022/11/03 06:33:35;;;;;;;9.73;4.93;;;;;;;;;;5015682;28;20083;-71
2022/11/03 06:36:22;;;;;;;9.00;4.45;;;;;;;;;;5014697;28;20018;-71
2022/11/03 06:39:33;;;;;;;10.75;4.13;;;;;;;;;;5016442;28;20514;-69
2022/11/03 06:42:19;;;;;;;7.90;4.45;;;;;;;;;;5030591;28;20033;-70
2022/11/03 06:45:13;;;;;;;10.82;5.50;;;;;;;;;;5011371;28;20018;-74
2022/11/03 06:47:59;;;;;;;16.85;4.82;;;;;;;;;;5014809;28;20033;-74
2022/11/03 06:50:44;;;;;;;9.45;4.95;;;;;;;;;;5016338;28;20032;-74
2022/11/03 06:53:32;;;;;;;10.75;4.53;;;;;;;;;;5032140;28;20499;-73
2022/11/03 06:56:20;;;;;;;7.00;3.53;;;;;;;;;;5018089;28;20084;-74
2022/11/03 06:59:07;;;;;;;8.10;4.13;;;;;;;;;;5032236;28;20053;-72
2022/11/03 07:01:54;;;;;;;12.63;4.70;;;;;;;;;;5016538;28;20025;-72
2022/11/03 07:04:39;;;;;;;9.00;5.15;;;;;;;;;;5016421;28;20584;-72
2022/11/03 07:07:24;;;;;;;11.75;4.88;;;;;;;;;;5017849;28;20056;-71
2022/11/03 07:10:09;;;;;;;9.38;4.43;;;;;;;;;;5017282;28;20124;-71
2022/11/03 07:12:55;;;;;;;9.00;4.40;;;;;;;;;;5001260;28;20062;-70
2022/11/03 07:15:42;;;;;;;10.70;4.32;;;;;;;;;;5021663;28;20014;-70
2022/11/03 07:18:33;;;;;;;8.80;5.05;;;;;;;;;;5025260;28;20508;-71
2022/11/03 07:21:29;;;;;;;10.65;5.25;;;;;;;;;;5011510;28;20084;-69
2022/11/03 07:24:17;;;;;;;10.90;5.10;;;;;;;;;;5013293;28;20091;-70
2022/11/03 07:27:15;;;;;;;13.40;4.80;;;;;;;;;;5020756;28;20438;-70
2022/11/03 07:30:14;;;;;;;10.68;4.38;;;;;;;;;;5025340;28;20071;-69
2022/11/03 07:33:01;;;;;;;10.77;4.93;;;;;;;;;;5031468;28;20053;-69
2022/11/03 07:35:47;;;;;;;11.43;4.40;;;;;;;;;;5028304;28;20041;-69
2022/11/03 07:38:32;;;;;;;10.63;4.22;;;;;;;;;;5029669;28;20033;-69
2022/11/03 07:41:19;;;;;;;11.15;4.50;;;;;;;;;;5021309;28;20528;-70
2022/11/03 07:44:04;;;;;;;14.55;5.28;;;;;;;;;;4991497;28;20045;-71
2022/11/03 07:46:50;;;;;;;14.48;5.47;;;;;;;;;;5011339;28;20056;-69
2022/11/03 07:49:35;;;;;;;13.57;5.00;;;;;;;;;;5010642;28;20076;-74
2022/11/03 07:52:24;;;;;;;9.63;4.68;;;;;;;;;;5007812;28;20109;-77
2022/11/03 07:55:10;;;;;;;8.35;4.28;;;;;;;;;;4989832;28;20025;-72
2022/11/03 07:57:55;;;;;;;11.40;4.82;;;;;;;;;;5007681;28;20454;-71
2022/11/03 08:00:40;;;;;;;14.15;5.40;;;;;;;;;;4993124;28;20072;-74
2022/11/03 08:03:34;;;;;;;13.48;5.40;;;;;;;;;;5010189;28;20029;-72
2022/11/03 08:06:19;;;;;;;10.77;4.28;;;;;;;;;;5010958;28;20374;-72
2022/11/03 08:09:05;;;;;;;14.00;5.43;;;;;;;;;;5010770;28;20091;-72
2022/11/03 08:11:51;;;;;;;12.15;5.25;;;;;;;;;;5004736;28;20026;-73
2022/11/03 08:14:36;;;;;;;14.40;5.25;;;;;;;;;;5023367;28;20385;-71
2022/11/03 08:17:22;;;;;;;16.20;5.30;;;;;;;;;;4990907;28;20025;-78
2022/11/03 08:20:07;;;;;;;8.85;4.70;;;;;;;;;;5010004;28;20508;-78
2022/11/03 08:22:53;;;;;;;8.50;4.07;;;;;;;;;;5010162;28;20083;-78
2022/11/03 08:25:38;;;;;;;11.95;5.45;;;;;;;;;;5005518;28;20025;-79
2022/11/03 08:28:23;;;;;;;13.95;6.07;;;;;;;;;;5009926;28;20033;-81
2022/11/03 08:31:08;;;;;;;10.07;4.57;;;;;;;;;;5010883;28;20113;-78
2022/11/03 08:33:54;;;;;;;8.38;4.07;;;;;;;;;;5009172;28;20032;-78
2022/11/03 08:36:39;;;;;;;10.55;4.70;;;;;;;;;;5004231;28;20026;-72
2022/11/03 08:39:24;;;;;;;9.80;3.92;;;;;;;;;;5008133;28;20041;-74
2022/11/03 08:42:09;;;;;;;12.82;6.07;;;;;;;;;;5008665;28;20553;-72
2022/11/03 08:44:55;;;;;;;8.43;4.78;;;;;;;;;;5007735;28;20048;-73
2022/11/03 08:47:40;;;;;;;8.90;3.97;;;;;;;;;;5008748;28;20034;-72
2022/11/03 08:50:25;;;;;;;12.18;5.22;;;;;;;;;;5003323;28;20033;-72
2022/11/03 08:53:10;;;;;;;10.45;4.70;;;;;;;;;;4998624;28;20026;-72
2022/11/03 08:55:56;;;;;;;11.10;4.18;;;;;;;;;;5010390;28;20026;-72
2022/11/03 08:58:42;;;;;;;12.45;4.63;;;;;;;;;;4995962;28;20207;-71
2022/11/03 09:01:28;;;;;;;8.63;4.00;;;;;;;;;;4997491;28;20101;-71
2022/11/03 09:04:13;;;;;;;7.40;3.50;;;;;;;;;;4996045;28;20450;-71
2022/11/03 09:06:58;;;;;;;9.30;3.33;;;;;;;;;;5011016;28;20032;-71
2022/11/03 09:09:43;;;;;;;10.25;3.45;;;;;;;;;;5009155;28;20117;-71
2022/11/03 09:12:28;;;;;;;9.85;3.92;;;;;;;;;;5010328;28;20028;-70
2022/11/03 09:15:14;;;;;;;7.75;3.53;;;;;;;;;;5009508;28;20034;-68
2022/11/03 09:17:59;;;;;;;7.32;3.38;;;;;;;;;;5010171;28;20030;-68
2022/11/03 09:20:44;;;;;;;9.07;3.47;;;;;;;;;;5008142;28;20074;-68
2022/11/03 09:23:30;;;;;;;9.80;3.65;;;;;;;;;;5008935;28;20028;-68
2022/11/03 09:26:15;;;;;;;8.52;3.33;;;;;;;;;;5009657;28;20037;-70
2022/11/03 09:29:00;;;;;;;6.10;2.92;;;;;;;;;;5009557;28;20092;-70
2022/11/03 09:31:46;;;;;;;6.70;2.47;;;;;;;;;;5009560;28;20108;-70
2022/11/03 09:34:31;;;;;;;6.28;2.45;;;;;;;;;;5009254;28;20053;-71
2022/11/03 09:37:16;;;;;;;9.18;3.47;;;;;;;;;;5009044;28;20050;-69
2022/11/03 09:40:03;;;;;;;10.13;3.33;;;;;;;;;;5010486;28;20038;-69
2022/11/03 09:42:48;;;;;;;10.20;2.75;;;;;;;;;;5015594;28;20029;-71
2022/11/03 09:45:33;;;;;;;6.82;2.90;;;;;;;;;;5014797;28;20056;-69
2022/11/03 09:48:18;;;;;;;5.25;2.67;;;;;;;;;;5014687;28;20060;-69
2022/11/03 09:51:04;;;;;;;9.90;2.50;;;;;;;;;;5014522;28;20029;-67
2022/11/03 09:53:49;;;;;;;4.28;2.40;;;;;;;;;;5015618;28;20038;-66
2022/11/03 09:56:35;;;;;;;8.10;2.95;;;;;;;;;;5014722;28;20029;-67
2022/11/03 09:59:21;;;;;;;6.63;2.60;;;;;;;;;;5015403;28;20038;-68
2022/11/03 10:02:14;;;;;;;7.35;3.10;;;;;;;;;;5012965;28;20040;-67
2022/11/03 10:05:00;;;;;;;5.22;2.58;;;;;;;;;;5002056;28;20044;-66
2022/11/03 10:07:45;;;;;;;7.75;2.95;;;;;;;;;;5028822;28;20024;-71
2022/11/03 10:10:32;;;;;;;6.65;2.58;;;;;;;;;;5006232;28;20045;-70
2022/11/03 10:13:22;;;;;;;6.65;3.22;;;;;;;;;;5028472;28;20048;-71
2022/11/03 10:16:08;;;;;;;6.05;2.55;;;;;;;;;;5014796;28;20030;-71
2022/11/03 10:18:53;;;;;;;7.35;2.15;;;;;;;;;;5028961;28;20496;-71
2022/11/03 10:21:40;;;;;;;6.07;2.42;;;;;;;;;;5014265;28;20030;-70
2022/11/03 10:24:25;;;;;;;6.88;2.22;;;;;;;;;;5014677;28;20107;-68
2022/11/03 10:27:31;;;;;;;7.05;2.20;;;;;;;;;;5016294;23;20017;-67
2022/11/03 10:30:16;;;;;;;5.28;2.03;;;;;;;;;;5009971;28;20033;-69
2022/11/03 10:33:01;;;;;;;9.60;2.33;;;;;;;;;;5015035;28;20396;-69
2022/11/03 10:35:46;;;;;;;8.98;2.85;;;;;;;;;;5016689;28;20056;-68
2022/11/03 10:38:33;;;;;;;7.05;3.42;;;;;;;;;;5012225;28;20519;-69
2022/11/03 10:41:19;;;;;;;7.47;2.33;;;;;;;;;;5004880;28;20502;-68
2022/11/03 10:44:10;;;;;;;5.15;2.65;;;;;;;;;;5018016;28;21356;-72
2022/11/03 10:46:59;;;;;;;6.68;2.35;;;;;;;;;;5032786;28;20492;-75
2022/11/03 10:49:44;;;;;;;8.13;2.38;;;;;;;;;;5018798;28;20033;-75
2022/11/03 10:52:30;;;;;;;6.45;2.22;;;;;;;;;;5031836;28;20051;-75
2022/11/03 10:55:16;;;;;;;7.30;2.50;;;;;;;;;;5001847;28;20107;-75
2022/11/03 10:58:01;;;;;;;9.32;2.47;;;;;;;;;;5018435;28;20029;-75
2022/11/03 11:00:46;;;;;;;4.97;2.28;;;;;;;;;;5017316;28;20040;-76
2022/11/03 11:03:33;;;;;;;6.18;2.53;;;;;;;;;;5033199;28;20551;-68
2022/11/03 11:06:20;;;;;;;6.47;2.95;;;;;;;;;;5017326;28;20030;-66
2022/11/03 11:09:08;;;;;;;5.13;2.10;;;;;;;;;;5017929;28;20052;-69
2022/11/03 11:12:04;;;;;;;8.63;4.45;;;;;;;;;;4986758;28;20025;-69
2022/11/03 11:14:56;;;;;;;6.63;2.88;;;;;;;;;;5031389;28;20382;-71
2022/11/03 11:17:43;;;;;;;7.60;3.17;;;;;;;;;;5018016;28;20507;-68
2022/11/03 11:20:30;;;;;;;6.97;2.63;;;;;;;;;;5019569;28;20512;-76
2022/11/03 11:23:27;;;;;;;7.30;3.83;;;;;;;;;;5007529;28;20030;-75
2022/11/03 11:26:13;;;;;;;5.78;2.72;;;;;;;;;;5012107;28;20034;-75
2022/11/03 11:29:07;;;;;;;11.23;2.80;;;;;;;;;;5032566;28;20076;-75
2022/11/03 11:31:52;;;;;;;8.93;2.58;;;;;;;;;;5008251;28;20091;-75
2022/11/03 11:34:38;;;;;;;4.00;2.75;;;;;;;;;;5017735;28;20080;-75
2022/11/03 11:37:23;;;;;;;7.00;3.25;;;;;;;;;;4987463;28;20038;-76
2022/11/03 11:40:24;;;;;;;6.28;3.20;;;;;;;;;;4984788;28;20034;-77
2022/11/03 11:43:10;;;;;;;6.68;3.63;;;;;;;;;;5007158;28;20033;-70
2022/11/03 11:46:14;;;;;;;8.63;3.42;;;;;;;;;;5030166;28;20022;-71
2022/11/03 11:49:02;;;;;;;4.47;2.53;;;;;;;;;;5003579;28;20396;-70
2022/11/03 11:51:47;;;;;;;8.48;4.45;;;;;;;;;;5008202;28;20037;-70
2022/11/03 11:54:33;;;;;;;6.82;3.33;;;;;;;;;;5020040;28;20028;-68
2022/11/03 11:57:20;;;;;;;7.65;3.10;;;;;;;;;;5017704;28;20096;-74
2022/11/03 12:00:16;;;;;;;8.98;3.20;;;;;;;;;;5011191;28;20064;-76
2022/11/03 12:03:04;;;;;;;7.05;3.15;;;;;;;;;;5015364;28;20468;-76
2022/11/03 12:05:49;;;;;;;5.40;2.58;;;;;;;;;;5030753;28;20033;-77
2022/11/03 12:08:34;;;;;;;8.63;3.00;;;;;;;;;;5001336;28;20079;-76
2022/11/03 12:11:38;;;;;;;8.07;2.50;;;;;;;;;;5029513;28;20036;-76
2022/11/03 12:14:30;;;;;;;10.18;3.55;;;;;;;;;;5002517;28;20030;-70
2022/11/03 12:17:15;;;;;;;7.72;2.88;;;;;;;;;;5006486;28;20055;-76
2022/11/03 12:20:21;;;;;;;5.53;2.72;;;;;;;;;;5016347;28;20025;-77
2022/11/03 12:23:06;;;;;;;6.18;2.63;;;;;;;;;;5005596;28;20121;-77
2022/11/03 12:25:51;;;;;;;6.47;2.63;;;;;;;;;;5007686;28;20159;-76
2022/11/03 12:28:36;;;;;;;7.63;2.78;;;;;;;;;;5010992;28;20489;-77
2022/11/03 12:31:21;;;;;;;6.00;2.35;;;;;;;;;;5010864;28;20017;-77
2022/11/03 12:34:07;;;;;;;4.75;2.63;;;;;;;;;;5005281;28;20024;-69
2022/11/03 12:36:52;;;;;;;7.95;3.28;;;;;;;;;;5008207;28;20469;-70
2022/11/03 12:39:37;;;;;;;4.75;2.75;;;;;;;;;;4985643;28;20037;-71
2022/11/03 12:42:23;;;;;;;7.53;3.50;;;;;;;;;;5012572;28;20021;-71
2022/11/03 12:45:09;;;;;;;5.22;2.38;;;;;;;;;;4999405;28;20074;-70
2022/11/03 12:47:54;;;;;;;4.55;2.20;;;;;;;;;;5002542;28;20037;-71
2022/11/03 12:50:40;;;;;;;6.28;2.65;;;;;;;;;;5005503;28;20453;-70
2022/11/03 12:53:25;;;;;;;8.93;3.15;;;;;;;;;;5002875;28;20053;-70
2022/11/03 12:56:11;;;;;;;5.03;2.47;;;;;;;;;;5013948;28;20028;-71
2022/11/03 12:58:56;;;;;;;4.80;2.70;;;;;;;;;;5008982;28;20485;-70
2022/11/03 13:01:41;;;;;;;6.90;2.63;;;;;;;;;;5004796;28;20086;-70
2022/11/03 13:04:26;;;;;;;6.90;2.88;;;;;;;;;;5005404;28;20017;-70
2022/11/03 13:07:12;;;;;;;5.50;2.42;;;;;;;;;;5000127;28;20037;-72
2022/11/03 13:09:57;;;;;;;6.95;2.88;;;;;;;;;;5006393;28;20581;-70
2022/11/03 13:12:44;;;;;;;5.45;2.33;;;;;;;;;;5007332;28;20036;-73
2022/11/03 13:15:29;;;;;;;10.45;2.70;;;;;;;;;;5029359;28;20026;-75
2022/11/03 13:18:14;;;;;;;6.55;2.83;;;;;;;;;;5017683;28;20029;-75
2022/11/03 13:21:00;;;;;;;7.18;3.38;;;;;;;;;;5004166;28;20077;-75
2022/11/03 13:23:45;;;;;;;10.43;3.60;;;;;;;;;;5005405;28;20107;-75
2022/11/03 13:26:30;;;;;;;6.82;3.10;;;;;;;;;;5011925;28;20606;-75
2022/11/03 13:29:16;;;;;;;7.82;3.70;;;;;;;;;;5014806;28;20061;-72
2022/11/03 13:32:02;;;;;;;8.10;2.90;;;;;;;;;;5014922;28;20091;-70
2022/11/03 13:34:47;;;;;;;7.10;3.20;;;;;;;;;;5012108;28;20361;-69
2022/11/03 13:37:32;;;;;;;7.97;2.80;;;;;;;;;;5005618;28;20044;-69
2022/11/03 13:40:18;;;;;;;5.85;3.60;;;;;;;;;;4999722;28;20049;-70
2022/11/03 13:43:03;;;;;;;7.32;2.35;;;;;;;;;;4992096;28;20485;-69
2022/11/03 13:45:48;;;;;;;7.30;3.03;;;;;;;;;;5023917;28;20025;-70
2022/11/03 13:48:33;;;;;;;5.22;2.95;;;;;;;;;;4999147;28;20026;-77
2022/11/03 13:51:20;;;;;;;8.35;3.67;;;;;;;;;;4999770;28;20116;-77
2022/11/03 13:54:05;;;;;;;7.53;3.65;;;;;;;;;;5005342;28;20034;-77
2022/11/03 13:56:50;;;;;;;7.88;3.25;;;;;;;;;;5022911;28;20032;-77
2022/11/03 13:59:36;;;;;;;8.40;3.17;;;;;;;;;;5007831;28;20044;-80
2022/11/03 14:02:21;;;;;;;7.68;3.60;;;;;;;;;;5000857;28;20113;-75
2022/11/03 14:05:06;;;;;;;12.77;4.28;;;;;;;;;;4991647;28;20030;-74
2022/11/03 14:07:51;;;;;;;6.75;2.92;;;;;;;;;;5012694;28;20134;-69
2022/11/03 14:10:37;;;;;;;8.18;3.33;;;;;;;;;;5023369;28;20046;-68
2022/11/03 14:13:22;;;;;;;10.15;3.65;;;;;;;;;;5012957;28;20106;-69
2022/11/03 14:16:07;;;;;;;8.98;3.92;;;;;;;;;;5027853;28;20022;-70
2022/11/03 14:18:53;;;;;;;9.10;4.18;;;;;;;;;;5003584;28;20040;-69
2022/11/03 14:21:41;;;;;;;6.95;3.58;;;;;;;;;;4997067;28;20183;-69
2022/11/03 14:24:26;;;;;;;6.75;3.55;;;;;;;;;;5004346;28;20038;-67
2022/11/03 14:27:12;;;;;;;8.80;3.85;;;;;;;;;;4995497;28;20025;-73
2022/11/03 14:29:57;;;;;;;10.73;3.88;;;;;;;;;;5009754;28;20054;-75
2022/11/03 14:32:42;;;;;;;13.10;5.57;;;;;;;;;;5010410;28;20279;-74
2022/11/03 14:35:27;;;;;;;16.17;4.60;;;;;;;;;;5028901;28;20112;-74
2022/11/03 14:38:13;;;;;;;18.42;4.90;;;;;;;;;;5000364;28;20080;-73
2022/11/03 14:44:02;;;;;;;10.05;4.28;;;;;;;;;;5014777;28;20025;-67
2022/11/03 14:46:52;;;;;;;10.15;5.22;;;;;;;;;;5027204;28;20448;-69
2022/11/03 14:49:37;;;;;;;9.45;4.65;;;;;;;;;;5003170;28;20029;-70
2022/11/03 14:52:23;;;;;;;11.50;4.45;;;;;;;;;;5015429;28;20034;-70
2022/11/03 14:55:08;;;;;;;13.82;5.47;;;;;;;;;;5001194;28;20030;-70
2022/11/03 14:57:53;;;;;;;11.15;5.75;;;;;;;;;;5014686;28;20116;-68
2022/11/03 15:00:38;;;;;;;14.02;5.07;;;;;;;;;;5013492;28;20038;-70
2022/11/03 15:03:24;;;;;;;8.52;4.20;;;;;;;;;;4992900;28;20025;-70
2022/11/03 15:06:10;;;;;;;12.27;4.55;;;;;;;;;;5014633;28;20494;-69
2022/11/03 15:08:55;;;;;;;9.07;4.07;;;;;;;;;;5005527;28;20408;-68
2022/11/03 15:11:41;;;;;;;11.32;4.70;;;;;;;;;;4990886;28;20021;-68
2022/11/03 15:14:26;;;;;;;8.90;4.00;;;;;;;;;;5031772;28;20060;-68
2022/11/03 15:17:11;;;;;;;13.13;4.03;;;;;;;;;;4997852;28;20022;-68
2022/11/03 15:19:56;;;;;;;8.15;3.88;;;;;;;;;;5030404;28;20475;-77
2022/11/03 15:22:42;;;;;;;21.98;5.32;;;;;;;;;;5005586;28;20104;-69
2022/11/03 15:25:28;;;;;;;12.60;4.60;;;;;;;;;;5005835;28;20025;-68
2022/11/03 15:28:13;;;;;;;12.10;4.47;;;;;;;;;;5009814;28;20132;-68
2022/11/03 15:30:58;;;;;;;9.43;5.60;;;;;;;;;;5027461;28;20030;-68
2022/11/03 15:33:43;;;;;;;10.20;4.32;;;;;;;;;;5014323;28;20033;-68
2022/11/03 15:36:29;;;;;;;12.10;5.00;;;;;;;;;;5021775;28;20033;-68
2022/11/03 15:39:15;;;;;;;8.85;4.65;;;;;;;;;;5021121;28;20029;-68
2022/11/03 15:42:00;;;;;;;11.55;4.78;;;;;;;;;;5018287;28;20022;-68
2022/11/03 15:44:45;;;;;;;13.88;4.68;;;;;;;;;;4992261;28;20510;-69
2022/11/03 15:47:31;;;;;;;12.07;5.32;;;;;;;;;;5025337;28;20499;-69
2022/11/03 15:50:16;;;;;;;16.50;6.30;;;;;;;;;;4989671;28;20033;-70
2022/11/03 15:53:02;;;;;;;12.68;5.13;;;;;;;;;;5000368;28;20438;-71
2022/11/03 15:55:47;;;;;;;11.43;4.97;;;;;;;;;;5000644;28;20112;-69
2022/11/03 15:58:33;;;;;;;9.20;4.78;;;;;;;;;;5009606;28;20021;-76
2022/11/03 16:01:19;;;;;;;17.67;6.13;;;;;;;;;;5008674;28;20055;-77
2022/11/03 16:04:04;;;;;;;9.45;4.40;;;;;;;;;;5010410;28;20097;-76
2022/11/03 16:06:49;;;;;;;9.30;4.72;;;;;;;;;;5012682;28;20033;-77
2022/11/03 16:09:34;;;;;;;13.05;5.25;;;;;;;;;;5019598;28;20028;-76
2022/11/03 16:12:22;;;;;;;10.43;4.85;;;;;;;;;;5011116;28;20068;-77
2022/11/03 16:15:07;;;;;;;11.63;5.30;;;;;;;;;;5003657;28;20025;-74
2022/11/03 16:17:53;;;;;;;10.05;4.55;;;;;;;;;;5027642;28;20047;-69
2022/11/03 16:20:38;;;;;;;9.82;4.55;;;;;;;;;;5006721;28;20124;-71
2022/11/03 16:23:23;;;;;;;10.27;5.03;;;;;;;;;;5024896;28;20029;-70
2022/11/03 16:26:08;;;;;;;9.60;4.93;;;;;;;;;;5009717;28;20087;-71
2022/11/03 16:28:54;;;;;;;10.02;4.50;;;;;;;;;;5015110;28;20049;-69
2022/11/03 16:31:39;;;;;;;12.32;5.18;;;;;;;;;;5006465;28;20038;-70
2022/11/03 16:34:24;;;;;;;9.90;5.05;;;;;;;;;;5009914;28;20052;-70
2022/11/03 16:37:10;;;;;;;14.27;4.72;;;;;;;;;;5015334;28;20080;-78
2022/11/03 16:39:55;;;;;;;9.68;5.00;;;;;;;;;;5023825;28;20045;-78
2022/11/03 16:42:40;;;;;;;8.50;4.55;;;;;;;;;;5016132;28;20017;-78
2022/11/03 16:45:27;;;;;;;11.43;4.53;;;;;;;;;;5011031;28;20060;-79
2022/11/03 16:48:12;;;;;;;16.60;5.18;;;;;;;;;;5005297;28;20029;-79
2022/11/03 16:50:58;;;;;;;12.43;5.80;;;;;;;;;;5008388;28;20030;-67
2022/11/03 16:53:43;;;;;;;12.27;5.25;;;;;;;;;;4995939;28;20033;-68
2022/11/03 16:56:29;;;;;;;13.50;4.97;;;;;;;;;;5016261;28;20061;-68
2022/11/03 16:59:14;;;;;;;12.30;5.28;;;;;;;;;;4998032;28;20385;-68